Time;durP1;ratioP1;P1;durP2;ratioP2;P2;SDS_P1;SDS_P2;PMS_P1;PMS_P2;Temp;Humidity;BMP_temperature;BMP_pressure;BME280_temperature;BME280_humidity;BME280_pressure;Samples;Min_cycle;Max_cycle;Signal;HPM_P1;HPM_P2
2023/10/09 00:00:51;;;;;;;13.02;3.97;;;16.60;99.90;;;;;;5096427;28;20024;-82
2023/10/09 00:03:22;;;;;;;11.32;2.90;;;16.60;99.90;;;;;;5096126;28;20035;-81
2023/10/09 00:05:49;;;;;;;;;;;16.60;99.90;;;;;;5096004;28;20055;-81
2023/10/09 00:08:21;;;;;;;8.10;2.83;;;16.60;99.90;;;;;;5095953;28;19904;-81
2023/10/09 00:10:57;;;;;;;13.43;3.33;;;16.60;99.90;;;;;;5095872;28;20031;-81
2023/10/09 00:13:32;;;;;;;20.60;3.53;;;16.60;99.90;;;;;;5097083;28;20024;-81
2023/10/09 00:16:14;;;;;;;12.52;3.50;;;16.60;99.90;;;;;;5096712;28;20476;-81
2023/10/09 00:18:46;;;;;;;;;;;16.60;99.90;;;;;;5096170;28;20062;-81
2023/10/09 00:21:20;;;;;;;15.65;3.28;;;16.60;99.90;;;;;;5095735;28;19911;-81
2023/10/09 00:23:59;;;;;;;12.93;3.40;;;16.50;99.90;;;;;;5095272;28;20050;-81
2023/10/09 00:26:25;;;;;;;14.27;3.28;;;16.60;99.90;;;;;;5095688;28;20118;-81
2023/10/09 00:28:51;;;;;;;12.57;3.00;;;16.50;99.90;;;;;;5095226;28;20094;-81
2023/10/09 00:31:26;;;;;;;14.13;3.00;;;16.50;99.90;;;;;;5096766;28;20027;-82
2023/10/09 00:33:52;;;;;;;12.43;3.10;;;16.40;99.90;;;;;;5096112;28;20080;-82
2023/10/09 00:36:27;;;;;;;13.45;3.17;;;16.40;99.90;;;;;;5095359;28;20032;-82
2023/10/09 00:38:53;;;;;;;21.80;3.20;;;16.50;99.90;;;;;;5094876;28;20028;-82
2023/10/09 00:41:20;;;;;;;14.30;3.92;;;16.40;99.90;;;;;;5095358;28;20024;-81
2023/10/09 00:43:49;;;;;;;13.40;2.72;;;16.40;99.90;;;;;;5094593;28;20110;-82
2023/10/09 00:46:23;;;;;;;12.30;3.10;;;16.40;99.90;;;;;;5095314;28;20032;-82
2023/10/09 00:49:02;;;;;;;16.20;3.42;;;16.40;99.90;;;;;;5094837;28;20078;-82
2023/10/09 00:51:35;;;;;;;15.73;2.83;;;16.40;99.90;;;;;;5095325;28;20024;-82
2023/10/09 00:54:13;;;;;;;18.17;3.17;;;16.40;99.90;;;;;;5095051;28;20032;-82
2023/10/09 00:56:44;;;;;;;14.38;3.25;;;16.30;99.90;;;;;;5094973;28;20088;-82
2023/10/09 00:59:14;;;;;;;11.67;3.50;;;16.30;99.90;;;;;;5094211;28;20020;-80
2023/10/09 01:01:45;;;;;;;13.05;3.72;;;16.30;99.90;;;;;;5094866;28;20029;-81
2023/10/09 01:04:15;;;;;;;15.77;3.72;;;16.30;99.90;;;;;;5095972;28;20023;-81
2023/10/09 01:06:47;;;;;;;12.70;3.47;;;16.30;99.90;;;;;;5096404;28;20028;-81
2023/10/09 01:09:14;;;;;;;13.07;3.30;;;16.30;99.90;;;;;;5094674;28;20035;-81
2023/10/09 01:14:24;;;;;;;15.10;3.17;;;16.30;99.90;;;;;;5095964;28;20020;-81
2023/10/09 01:16:53;;;;;;;13.80;3.50;;;16.30;99.90;;;;;;5093920;28;20127;-81
2023/10/09 01:19:20;;;;;;;18.45;3.75;;;16.40;99.90;;;;;;5094042;28;20059;-81
2023/10/09 01:21:46;;;;;;;13.40;3.80;;;16.40;99.90;;;;;;5094088;28;20024;-82
2023/10/09 01:24:11;;;;;;;10.48;3.30;;;16.40;99.90;;;;;;5093906;28;20082;-81
2023/10/09 01:26:45;;;;;;;12.43;3.30;;;16.40;99.90;;;;;;5095383;28;20425;-81
2023/10/09 01:29:14;;;;;;;17.95;3.92;;;16.40;99.90;;;;;;5093779;28;20024;-81
2023/10/09 01:31:51;;;;;;;16.50;3.88;;;16.40;99.90;;;;;;5094039;28;20020;-79
2023/10/09 01:34:18;;;;;;;18.55;3.92;;;16.40;99.90;;;;;;5094992;28;20093;-81
2023/10/09 01:36:48;;;;;;;11.85;3.70;;;16.40;99.90;;;;;;5094863;28;20090;-80
2023/10/09 01:39:25;;;;;;;18.13;3.60;;;16.40;99.90;;;;;;5093780;28;20119;-81
2023/10/09 01:42:05;;;;;;;17.63;3.40;;;16.30;99.90;;;;;;5093405;28;20034;-80
2023/10/09 01:44:35;;;;;;;14.23;3.40;;;16.30;99.90;;;;;;5094785;28;20020;-79
2023/10/09 01:47:07;;;;;;;15.45;3.40;;;16.30;99.90;;;;;;5093967;28;20388;-80
2023/10/09 01:49:43;;;;;;;11.68;3.22;;;16.30;99.90;;;;;;5093715;28;20024;-80
2023/10/09 01:52:10;;;;;;;13.70;3.95;;;16.30;99.90;;;;;;5093305;28;20440;-80
2023/10/09 01:54:37;;;;;;;16.83;3.53;;;16.30;99.90;;;;;;5094969;28;20051;-80
2023/10/09 01:57:05;;;;;;;16.33;3.65;;;16.40;99.90;;;;;;5094101;28;20491;-80
2023/10/09 01:59:37;;;;;;;10.93;3.55;;;16.30;99.90;;;;;;5093121;28;20024;-80
2023/10/09 02:02:25;;;;;;;15.55;3.50;;;16.30;99.90;;;;;;5094229;28;20464;-80
2023/10/09 02:05:04;;;;;;;19.95;4.15;;;16.30;99.90;;;;;;5093416;28;20027;-79
2023/10/09 02:07:40;;;;;;;12.48;3.35;;;16.30;99.90;;;;;;5093876;28;20560;-80
2023/10/09 02:10:11;;;;;;;12.85;3.42;;;16.30;99.90;;;;;;5094186;28;20026;-80
2023/10/09 02:12:37;;;;;;;14.00;3.10;;;16.30;99.90;;;;;;5093511;28;20481;-80
2023/10/09 02:15:15;;;;;;;15.18;4.10;;;16.30;99.90;;;;;;5094235;28;20115;-80
2023/10/09 02:17:52;;;;;;;16.17;3.33;;;16.20;99.90;;;;;;5093493;28;20040;-79
2023/10/09 02:20:28;;;;;;;19.50;4.07;;;16.20;99.90;;;;;;5093130;28;20067;-80
2023/10/09 02:22:54;;;;;;;16.23;3.58;;;16.20;99.90;;;;;;5093895;28;20016;-80
2023/10/09 02:25:22;;;;;;;13.23;3.25;;;16.20;99.90;;;;;;5094254;28;20126;-80
2023/10/09 02:27:53;;;;;;;15.88;3.53;;;16.20;99.90;;;;;;5092814;28;20101;-81
2023/10/09 02:30:27;;;;;;;13.88;3.75;;;16.20;99.90;;;;;;5093026;28;20039;-81
2023/10/09 02:32:59;;;;;;;12.38;3.33;;;16.10;99.90;;;;;;5092845;28;20043;-82
2023/10/09 02:35:38;;;;;;;18.95;3.10;;;16.10;99.90;;;;;;5093360;28;20048;-81
2023/10/09 02:38:07;;;;;;;14.30;3.63;;;16.10;99.90;;;;;;5092790;28;20131;-81
2023/10/09 02:40:41;;;;;;;17.13;3.17;;;16.00;99.90;;;;;;5093484;28;20038;-81
2023/10/09 02:43:17;;;;;;;10.23;3.38;;;16.00;99.90;;;;;;5092869;28;20031;-81
2023/10/09 02:45:50;;;;;;;12.45;3.13;;;16.00;99.90;;;;;;5093335;28;20077;-81
2023/10/09 02:48:19;;;;;;;13.95;3.22;;;16.00;99.90;;;;;;5093788;28;20040;-80
2023/10/09 02:50:45;;;;;;;15.48;3.63;;;16.00;99.90;;;;;;5092792;28;20030;-80
2023/10/09 02:53:19;;;;;;;17.20;4.38;;;15.90;99.90;;;;;;5093573;28;20028;-80
2023/10/09 02:56:03;;;;;;;14.85;3.85;;;15.90;99.90;;;;;;5093064;28;20030;-81
2023/10/09 02:58:31;;;;;;;15.05;3.67;;;15.90;99.90;;;;;;5093041;28;20060;-80
2023/10/09 03:00:58;;;;;;;10.68;3.40;;;15.90;99.90;;;;;;5092022;28;20024;-81
2023/10/09 03:03:25;;;;;;;18.20;3.60;;;15.90;99.90;;;;;;5092914;28;20084;-81
2023/10/09 03:05:50;;;;;;;14.52;3.20;;;15.80;99.90;;;;;;5092665;28;20028;-81
2023/10/09 03:08:19;;;;;;;16.13;3.20;;;15.80;99.90;;;;;;5092974;28;20438;-81
2023/10/09 03:10:45;;;;;;;17.65;3.38;;;15.80;99.90;;;;;;5092667;28;20084;-81
2023/10/09 03:13:10;;;;;;;16.17;3.67;;;15.80;99.90;;;;;;5091997;28;20028;-81
2023/10/09 03:15:38;;;;;;;11.57;3.20;;;15.70;99.90;;;;;;5093037;28;20024;-81
2023/10/09 03:18:04;;;;;;;16.17;3.90;;;15.80;99.90;;;;;;5093142;28;20072;-81
2023/10/09 03:20:31;;;;;;;14.13;3.30;;;15.80;99.90;;;;;;5093603;28;20024;-81
2023/10/09 03:22:57;;;;;;;16.73;3.40;;;15.80;99.90;;;;;;5097558;28;20052;-82
2023/10/09 03:25:25;;;;;;;16.25;3.28;;;15.80;99.90;;;;;;5096883;28;20070;-81
2023/10/09 03:27:52;;;;;;;12.73;3.42;;;15.80;99.90;;;;;;5096931;28;20036;-81
2023/10/09 03:30:24;;;;;;;14.48;3.58;;;15.70;99.90;;;;;;5096420;28;20087;-81
2023/10/09 03:32:54;;;;;;;10.75;3.25;;;15.80;99.90;;;;;;5097693;28;20020;-81
2023/10/09 03:35:27;;;;;;;11.93;3.70;;;15.80;99.90;;;;;;5095813;28;20048;-81
2023/10/09 03:38:11;;;;;;;12.60;3.30;;;15.70;99.90;;;;;;5097589;28;20074;-81
2023/10/09 03:40:42;;;;;;;12.57;3.50;;;15.80;99.90;;;;;;5097676;28;20031;-81
2023/10/09 03:43:10;;;;;;;14.35;3.10;;;15.60;99.90;;;;;;5097128;28;20468;-81
2023/10/09 03:45:38;;;;;;;19.60;3.50;;;15.70;99.90;;;;;;5097280;28;20367;-81
2023/10/09 03:48:11;;;;;;;15.15;3.42;;;15.70;99.90;;;;;;5096795;28;20055;-81
2023/10/09 03:50:37;;;;;;;15.73;4.05;;;15.70;99.90;;;;;;5096192;28;20076;-80
2023/10/09 03:53:07;;;;;;;19.02;4.43;;;15.70;99.90;;;;;;5097064;28;20024;-81
2023/10/09 03:55:38;;;;;;;10.48;3.53;;;15.70;99.90;;;;;;5097190;28;20072;-81
2023/10/09 03:58:04;;;;;;;15.27;3.85;;;15.70;99.90;;;;;;5095482;28;20028;-81
2023/10/09 04:00:30;;;;;;;17.52;4.25;;;15.60;99.90;;;;;;5096125;28;20024;-80
2023/10/09 04:02:57;;;;;;;14.13;3.38;;;15.60;99.90;;;;;;5095897;28;20108;-81
2023/10/09 04:05:24;;;;;;;12.57;3.58;;;15.60;99.90;;;;;;5095794;28;20027;-81
2023/10/09 04:07:53;;;;;;;14.18;3.72;;;15.70;99.90;;;;;;5096985;28;20032;-81
2023/10/09 04:13:03;;;;;;;11.75;3.70;;;15.70;99.90;;;;;;5096062;28;20500;-81
2023/10/09 04:15:30;;;;;;;20.88;3.70;;;15.60;99.90;;;;;;5096257;28;20024;-80
2023/10/09 04:17:56;;;;;;;15.52;3.28;;;15.60;99.90;;;;;;5095777;28;20040;-80
2023/10/09 04:22:51;;;;;;;12.88;3.33;;;15.50;99.90;;;;;;5096881;28;20056;-80
2023/10/09 04:25:28;;;;;;;14.35;3.40;;;15.50;99.90;;;;;;5095019;28;20506;-80
2023/10/09 04:30:43;;;;;;;10.10;3.40;;;15.60;99.90;;;;;;5096687;28;20060;-80
2023/10/09 04:46:44;;;;;;;13.90;3.50;;;15.40;99.90;;;;;;5096189;28;20032;-79
2023/10/09 04:49:34;;;;;;;12.00;3.70;;;15.40;99.90;;;;;;5094508;28;20111;-81
2023/10/09 04:52:18;;;;;;;15.45;3.78;;;15.40;99.90;;;;;;5096135;28;20016;-81
2023/10/09 04:57:29;;;;;;;13.18;3.42;;;15.40;99.90;;;;;;5096020;28;20034;-81
2023/10/09 04:59:58;;;;;;;14.60;3.20;;;15.40;99.90;;;;;;5095164;28;20028;-81
2023/10/09 05:02:24;;;;;;;18.30;3.65;;;15.40;99.90;;;;;;5095884;28;20024;-81
2023/10/09 05:05:15;;;;;;;16.55;4.72;;;15.40;99.90;;;;;;5095791;28;20031;-81
2023/10/09 05:08:45;;;;;;;13.20;3.70;;;15.40;99.90;;;;;;5095094;28;20024;-81
2023/10/09 05:10:32;;;;;;;12.68;3.15;;;15.30;99.90;;;;;;5086152;28;20044;-81
2023/10/09 05:12:57;;;;;;;15.52;3.95;;;15.40;99.90;;;;;;5094687;28;20032;-82
2023/10/09 05:15:29;;;;;;;15.38;3.00;;;15.30;99.90;;;;;;5095309;28;20460;-82
2023/10/09 05:17:56;;;;;;;16.92;3.55;;;15.40;99.90;;;;;;5094567;28;20040;-82
2023/10/09 05:22:58;;;;;;;19.85;4.18;;;15.40;99.90;;;;;;5095509;28;20452;-82
2023/10/09 05:28:30;;;;;;;17.90;3.40;;;15.30;99.90;;;;;;5094621;28;20035;-81
2023/10/09 05:31:09;;;;;;;14.07;3.20;;;15.40;99.90;;;;;;5094271;28;20031;-82
2023/10/09 05:33:37;;;;;;;15.55;3.47;;;15.30;99.90;;;;;;5093694;28;20032;-82
2023/10/09 05:36:14;;;;;;;15.40;3.50;;;15.30;99.90;;;;;;5093637;28;20373;-82
2023/10/09 05:38:46;;;;;;;15.80;3.08;;;15.30;99.90;;;;;;5095298;28;20040;-82
2023/10/09 05:47:04;;;;;;;15.07;3.17;;;15.30;99.90;;;;;;5095216;28;20499;-81
2023/10/09 05:49:45;;;;;;;15.82;3.47;;;15.30;99.90;;;;;;5094474;28;20115;-81
2023/10/09 06:14:12;;;;;;;13.80;3.00;;;15.40;99.90;;;;;;5094700;28;20039;-81
2023/10/09 06:16:42;;;;;;;13.13;3.80;;;15.40;99.90;;;;;;5093482;28;20055;-81
2023/10/09 06:19:12;;;;;;;17.40;4.13;;;15.40;99.90;;;;;;5094223;28;20024;-81
2023/10/09 06:21:40;;;;;;;17.80;3.85;;;15.40;99.90;;;;;;5093639;28;20020;-81
2023/10/09 06:26:51;;;;;;;18.90;5.30;;;15.40;99.90;;;;;;5094489;28;20032;-80
2023/10/09 06:29:33;;;;;;;13.10;4.13;;;15.50;99.90;;;;;;5094031;28;20472;-81
2023/10/09 06:32:16;;;;;;;16.25;4.65;;;15.50;99.90;;;;;;5093482;28;20031;-79
2023/10/09 06:34:45;;;;;;;21.67;5.75;;;15.60;99.90;;;;;;5093292;28;20071;-81
2023/10/09 06:45:08;;;;;;;12.48;3.13;;;15.70;99.90;;;;;;5094264;28;20059;-81
2023/10/09 06:47:41;;;;;;;11.63;2.83;;;15.80;99.90;;;;;;5094291;28;20039;-81
2023/10/09 06:55:48;;;;;;;10.05;3.30;;;15.90;99.90;;;;;;5093121;28;20027;-81
2023/10/09 06:58:25;;;;;;;11.00;3.28;;;16.00;99.90;;;;;;5093713;28;20035;-82
2023/10/09 07:03:29;;;;;;;13.15;3.60;;;16.00;99.90;;;;;;5093679;28;20052;-81
2023/10/09 07:06:23;;;;;;;;;;;16.00;99.90;;;;;;5094515;28;20062;-81
2023/10/09 07:09:42;;;;;;;12.65;3.65;;;16.00;99.90;;;;;;5084015;28;19962;-81
2023/10/09 07:24:57;;;;;;;14.30;3.33;;;16.20;99.90;;;;;;5091238;28;20028;-81
2023/10/09 07:27:43;;;;;;;16.63;3.53;;;16.20;99.90;;;;;;5090623;28;20487;-81
2023/10/09 07:38:10;;;;;;;;;;;16.40;99.90;;;;;;5080801;28;20177;-83
2023/10/09 07:43:45;;;;;;;18.13;4.05;;;16.40;99.90;;;;;;5086054;28;20077;-82
2023/10/09 07:46:30;;;;;;;12.10;3.60;;;16.50;99.90;;;;;;5092136;28;20028;-82
2023/10/09 07:48:57;;;;;;;13.85;3.33;;;16.50;99.90;;;;;;5093782;28;20028;-84
2023/10/09 07:51:30;;;;;;;13.93;3.80;;;16.50;99.90;;;;;;5111026;28;20453;-81
2023/10/09 07:54:00;;;;;;;13.85;2.83;;;16.60;99.90;;;;;;5098573;28;20024;-81
2023/10/09 07:56:30;;;;;;;13.45;2.78;;;16.60;99.90;;;;;;5088620;28;20032;-83
2023/10/09 07:59:00;;;;;;;13.23;3.05;;;16.60;99.90;;;;;;5108473;28;20103;-82
2023/10/09 08:03:57;;;;;;;13.48;4.28;;;16.70;99.90;;;;;;5095065;28;20032;-83
2023/10/09 08:06:38;;;;;;;12.50;2.95;;;16.80;99.90;;;;;;5086099;28;20074;-82
2023/10/09 08:17:15;;;;;;;10.52;2.78;;;16.90;99.90;;;;;;5095828;28;20042;-86
2023/10/09 08:19:54;;;;;;;13.05;3.05;;;17.00;99.90;;;;;;5092305;28;20028;-86
2023/10/09 08:24:56;;;;;;;10.70;2.90;;;17.10;99.90;;;;;;5089288;28;20024;-82
2023/10/09 08:33:02;;;;;;;17.65;3.15;;;17.30;99.90;;;;;;5113239;28;20020;-82
2023/10/09 08:35:47;;;;;;;12.88;2.60;;;17.40;99.90;;;;;;5097941;28;20101;-82
2023/10/09 08:38:13;;;;;;;14.68;3.22;;;17.50;99.90;;;;;;5111486;28;20042;-83
2023/10/09 08:40:46;;;;;;;11.35;2.80;;;17.60;99.90;;;;;;5098508;28;20107;-83
2023/10/09 08:43:21;;;;;;;16.05;3.20;;;17.70;99.90;;;;;;5102581;28;20534;-81
2023/10/09 08:46:00;;;;;;;11.48;3.05;;;17.80;99.90;;;;;;5093497;28;20032;-83
2023/10/09 08:48:27;;;;;;;13.13;3.25;;;17.80;99.90;;;;;;5096326;28;20534;-83
2023/10/09 08:50:54;;;;;;;12.98;2.65;;;17.90;99.90;;;;;;5111015;28;20020;-82
2023/10/09 08:53:21;;;;;;;8.55;2.50;;;18.10;99.90;;;;;;5102785;28;20034;-81
2023/10/09 08:55:47;;;;;;;11.10;2.25;;;18.10;99.90;;;;;;5103068;28;20123;-82
2023/10/09 08:58:24;;;;;;;13.20;2.78;;;18.20;99.90;;;;;;5094339;28;20095;-81
2023/10/09 09:00:51;;;;;;;10.32;1.85;;;18.20;99.90;;;;;;5081315;28;20045;-80
2023/10/09 09:03:19;;;;;;;17.30;2.28;;;18.20;99.90;;;;;;5100376;28;20080;-79
2023/10/09 09:05:49;;;;;;;11.23;2.25;;;18.30;99.90;;;;;;5106983;28;20029;-79
2023/10/09 09:08:25;;;;;;;10.38;2.28;;;18.30;99.90;;;;;;5099297;28;20032;-79
2023/10/09 09:13:49;;;;;;;14.80;2.50;;;18.50;99.90;;;;;;5104559;28;20056;-79
2023/10/09 09:16:21;;;;;;;19.85;2.60;;;18.70;99.80;;;;;;5110050;28;20024;-79
2023/10/09 09:19:04;;;;;;;12.23;2.95;;;18.80;99.90;;;;;;5093496;28;20039;-79
2023/10/09 09:21:37;;;;;;;7.53;2.65;;;18.90;99.80;;;;;;5104224;28;20115;-79
2023/10/09 09:24:15;;;;;;;11.90;2.63;;;18.90;99.60;;;;;;5096429;28;20020;-80
2023/10/09 09:26:58;;;;;;;11.07;2.55;;;19.00;99.30;;;;;;5083261;28;20127;-79
2023/10/09 09:29:38;;;;;;;13.85;3.08;;;19.10;99.20;;;;;;5101377;28;20111;-80
2023/10/09 09:32:19;;;;;;;13.02;2.83;;;19.20;99.10;;;;;;5080141;28;20461;-80
2023/10/09 09:34:49;;;;;;;16.60;2.95;;;19.30;99.00;;;;;;5110382;28;20040;-79
2023/10/09 09:37:28;;;;;;;12.77;2.50;;;19.40;99.00;;;;;;5093078;28;20036;-81
2023/10/09 09:39:57;;;;;;;12.07;2.78;;;19.40;98.80;;;;;;5107738;28;20024;-79
2023/10/09 09:42:27;;;;;;;13.25;3.13;;;19.50;98.60;;;;;;5091014;28;20024;-78
2023/10/09 09:44:53;;;;;;;15.40;2.80;;;19.60;98.40;;;;;;5083500;28;20081;-78
2023/10/09 09:47:29;;;;;;;13.65;3.50;;;19.70;98.40;;;;;;5082822;28;20039;-79
2023/10/09 09:50:11;;;;;;;11.55;2.42;;;19.70;98.40;;;;;;5080625;28;20033;-81
2023/10/09 09:52:40;;;;;;;10.43;2.40;;;19.90;98.20;;;;;;5087840;28;20028;-79
2023/10/09 09:55:22;;;;;;;15.38;2.70;;;19.90;97.90;;;;;;5093524;28;20028;-78
2023/10/09 09:57:52;;;;;;;9.60;2.70;;;19.90;97.90;;;;;;5093693;28;20396;-78
2023/10/09 10:00:30;;;;;;;20.00;3.58;;;20.00;97.90;;;;;;5092912;28;20059;-79
2023/10/09 10:03:08;;;;;;;12.32;2.58;;;20.00;97.70;;;;;;5093247;28;20028;-79
2023/10/09 10:05:35;;;;;;;15.77;2.70;;;20.00;97.70;;;;;;5092352;28;20479;-81
2023/10/09 10:08:05;;;;;;;10.57;2.80;;;20.00;97.80;;;;;;5098518;28;20038;-80
2023/10/09 10:10:34;;;;;;;13.27;2.70;;;20.00;97.90;;;;;;5092782;28;20495;-80
2023/10/09 10:13:01;;;;;;;15.70;2.63;;;20.00;97.80;;;;;;5094772;28;20032;-81
2023/10/09 10:15:56;;;;;;;9.07;2.10;;;20.10;97.70;;;;;;5094104;28;20111;-81
2023/10/09 10:18:23;;;;;;;13.55;2.50;;;20.10;97.70;;;;;;5092794;28;20036;-81
2023/10/09 10:21:15;;;;;;;12.50;2.78;;;20.20;97.70;;;;;;5093430;28;20020;-81
2023/10/09 10:23:42;;;;;;;13.93;2.90;;;20.30;97.50;;;;;;5093675;28;20024;-80
2023/10/09 10:26:26;;;;;;;11.55;2.50;;;20.40;97.30;;;;;;5094199;28;20490;-80
2023/10/09 10:29:22;;;;;;;10.27;2.83;;;20.60;97.10;;;;;;5093244;28;20032;-83
2023/10/09 10:32:10;;;;;;;14.93;2.47;;;20.80;96.90;;;;;;5092519;28;20446;-79
2023/10/09 10:34:57;;;;;;;7.90;2.33;;;20.90;96.70;;;;;;5092598;28;20301;-80
2023/10/09 10:37:38;;;;;;;10.52;2.00;;;20.80;96.50;;;;;;5092680;28;20042;-80
2023/10/09 10:40:13;;;;;;;11.68;2.20;;;20.80;96.60;;;;;;5093923;28;20027;-80
2023/10/09 10:45:38;;;;;;;13.93;2.40;;;20.80;96.80;;;;;;5093785;28;20059;-79
2023/10/09 10:48:10;;;;;;;11.25;2.75;;;20.80;96.80;;;;;;5093956;28;20028;-79
2023/10/09 10:50:37;;;;;;;10.88;2.30;;;20.70;96.90;;;;;;5092158;28;20394;-79
2023/10/09 10:53:15;;;;;;;14.68;2.55;;;20.80;97.00;;;;;;5092767;28;20115;-80
2023/10/09 10:56:18;;;;;;;11.23;2.72;;;20.70;97.20;;;;;;5092016;28;20115;-79
2023/10/09 11:01:50;;;;;;;14.82;2.78;;;20.70;97.40;;;;;;5093339;28;20028;-80
2023/10/09 11:04:24;;;;;;;13.20;2.80;;;20.70;97.40;;;;;;5093726;28;20103;-80
2023/10/09 11:06:51;;;;;;;13.15;2.58;;;20.70;97.40;;;;;;5092791;28;20032;-79
2023/10/09 11:09:23;;;;;;;12.95;2.35;;;20.70;97.40;;;;;;5093692;28;20028;-79
2023/10/09 11:12:11;;;;;;;9.25;2.40;;;20.80;97.40;;;;;;5092975;28;20024;-80
2023/10/09 11:14:46;;;;;;;15.07;2.78;;;20.80;97.30;;;;;;5092093;28;20020;-80
2023/10/09 11:17:25;;;;;;;13.45;2.78;;;20.90;97.30;;;;;;5092307;28;20044;-79
2023/10/09 11:19:52;;;;;;;10.18;2.17;;;21.00;97.30;;;;;;5092564;28;20028;-79
2023/10/09 11:22:36;;;;;;;12.32;2.08;;;21.10;97.10;;;;;;5092466;28;20036;-80
2023/10/09 11:25:18;;;;;;;14.95;2.63;;;21.10;96.90;;;;;;5092769;28;20020;-80
2023/10/09 11:27:50;;;;;;;8.55;2.45;;;21.30;96.60;;;;;;5092196;28;20040;-80
2023/10/09 11:30:32;;;;;;;15.43;3.50;;;21.40;96.50;;;;;;5093744;28;20024;-80
2023/10/09 11:33:05;;;;;;;11.38;2.13;;;21.50;96.30;;;;;;5093728;28;20469;-80
2023/10/09 11:35:34;;;;;;;10.48;2.50;;;21.60;96.20;;;;;;5092861;28;20520;-79
2023/10/09 11:38:01;;;;;;;14.05;2.70;;;21.70;96.10;;;;;;5092300;28;20057;-79
2023/10/09 11:40:33;;;;;;;10.85;2.33;;;21.80;96.20;;;;;;5091635;28;20032;-79
2023/10/09 11:43:03;;;;;;;9.20;2.20;;;21.80;96.00;;;;;;5095259;28;20457;-80
2023/10/09 11:45:29;;;;;;;16.00;2.65;;;21.90;96.00;;;;;;5096686;28;20525;-80
2023/10/09 11:47:57;;;;;;;12.20;3.30;;;22.00;95.90;;;;;;5096188;28;20070;-80
2023/10/09 11:53:45;;;;;;;12.55;2.20;;;22.00;95.90;;;;;;5096840;28;20024;-80
2023/10/09 11:56:14;;;;;;;11.43;2.30;;;22.10;96.00;;;;;;5096166;28;20024;-79
2023/10/09 11:58:40;;;;;;;11.07;2.28;;;22.20;95.80;;;;;;5095611;28;20036;-80
2023/10/09 12:01:20;;;;;;;11.65;2.40;;;22.30;95.50;;;;;;5096096;28;20381;-80
2023/10/09 12:03:49;;;;;;;11.50;2.20;;;22.40;95.40;;;;;;5095516;28;20024;-79
2023/10/09 12:06:18;;;;;;;12.63;2.38;;;22.70;94.90;;;;;;5097054;28;20035;-80
2023/10/09 12:08:48;;;;;;;9.75;2.22;;;22.90;94.50;;;;;;5096498;28;20020;-80
2023/10/09 12:11:22;;;;;;;13.48;2.45;;;23.20;94.20;;;;;;5097086;28;20016;-80
2023/10/09 12:13:56;;;;;;;11.10;1.92;;;23.50;93.70;;;;;;5095733;28;20024;-80
2023/10/09 12:16:22;;;;;;;17.42;2.45;;;23.80;93.10;;;;;;5095688;28;20468;-80
2023/10/09 12:18:53;;;;;;;10.65;2.30;;;24.10;92.40;;;;;;5095811;28;20119;-80
2023/10/09 12:21:19;;;;;;;10.95;2.10;;;24.10;91.80;;;;;;5096484;28;20028;-80
2023/10/09 12:23:47;;;;;;;8.45;2.17;;;24.10;91.80;;;;;;5096384;28;20449;-80
2023/10/09 12:26:14;;;;;;;10.15;2.00;;;24.00;91.70;;;;;;5095639;28;20031;-80
2023/10/09 12:28:46;;;;;;;10.32;1.92;;;23.90;91.90;;;;;;5096045;28;20114;-80
2023/10/09 12:31:14;;;;;;;10.13;2.42;;;23.80;91.20;;;;;;5095710;28;20061;-80
2023/10/09 12:33:41;;;;;;;12.05;2.17;;;23.70;91.50;;;;;;5094935;28;20032;-80
2023/10/09 12:36:17;;;;;;;11.70;2.70;;;23.70;91.80;;;;;;5095430;28;20118;-80
2023/10/09 12:38:46;;;;;;;15.77;2.25;;;23.80;91.50;;;;;;5094788;28;20194;-80
2023/10/09 12:41:25;;;;;;;11.82;3.45;;;23.90;91.20;;;;;;5095147;28;20074;-80
2023/10/09 12:43:51;;;;;;;17.75;3.33;;;24.10;90.90;;;;;;5095409;28;20024;-80
2023/10/09 12:46:18;;;;;;;13.75;2.22;;;24.30;90.60;;;;;;5096509;28;20092;-80
2023/10/09 12:48:47;;;;;;;16.02;2.47;;;24.60;90.20;;;;;;5115108;28;20042;-80
2023/10/09 12:51:16;;;;;;;11.32;2.15;;;25.00;89.00;;;;;;5116716;28;20035;-79
2023/10/09 12:53:43;;;;;;;12.20;2.63;;;25.60;88.30;;;;;;5115116;28;20019;-80
2023/10/09 12:56:09;;;;;;;12.77;2.03;;;26.00;87.50;;;;;;5115502;28;20028;-80
2023/10/09 12:58:38;;;;;;;8.75;2.13;;;26.40;85.50;;;;;;5115061;28;20031;-81
2023/10/09 13:01:11;;;;;;;10.07;2.80;;;26.70;84.70;;;;;;5116519;28;20024;-80
2023/10/09 13:03:40;;;;;;;13.30;2.40;;;26.90;83.80;;;;;;5114858;28;20453;-79
2023/10/09 13:06:12;;;;;;;12.15;2.33;;;27.40;82.50;;;;;;5115095;28;20027;-80
2023/10/09 13:08:40;;;;;;;19.13;3.13;;;27.80;81.50;;;;;;5114966;28;20391;-81
2023/10/09 13:11:10;;;;;;;10.80;2.50;;;28.10;80.50;;;;;;5116624;28;20066;-82
2023/10/09 13:13:41;;;;;;;15.00;3.08;;;28.50;79.70;;;;;;5114560;28;20020;-82
2023/10/09 13:16:13;;;;;;;13.85;2.03;;;28.70;78.70;;;;;;5116423;28;20062;-82
2023/10/09 13:18:40;;;;;;;14.18;2.63;;;29.00;78.00;;;;;;5114188;28;20050;-83
2023/10/09 13:21:05;;;;;;;11.73;2.33;;;29.40;77.40;;;;;;5114759;28;20178;-83
2023/10/09 13:24:15;;;;;;;12.48;2.05;;;29.90;76.30;;;;;;5115721;28;20118;-82
2023/10/09 13:26:24;;;;;;;16.33;2.80;;;30.20;74.10;;;;;;5107705;28;20092;-82
2023/10/09 13:28:52;;;;;;;11.75;2.92;;;30.50;72.20;;;;;;5114442;28;20085;-82
2023/10/09 13:31:18;;;;;;;9.02;2.85;;;30.60;72.00;;;;;;5114814;28;20039;-82
2023/10/09 13:33:45;;;;;;;12.68;2.50;;;30.80;71.50;;;;;;5114160;28;20024;-81
2023/10/09 13:36:19;;;;;;;16.73;2.78;;;30.80;70.80;;;;;;5114945;28;20035;-81
2023/10/09 13:38:45;;;;;;;10.82;2.72;;;30.90;69.90;;;;;;5114217;28;20031;-81
2023/10/09 13:41:12;;;;;;;13.10;2.33;;;30.70;69.90;;;;;;5114695;28;20533;-81
2023/10/09 13:43:42;;;;;;;15.88;2.80;;;30.50;69.60;;;;;;5115434;28;20023;-82
2023/10/09 13:46:09;;;;;;;12.77;2.40;;;30.10;70.30;;;;;;5114596;28;20043;-82
2023/10/09 13:48:38;;;;;;;9.60;2.15;;;29.90;71.10;;;;;;5114374;28;20032;-81
2023/10/09 13:51:19;;;;;;;16.48;2.95;;;29.70;71.50;;;;;;5114598;28;20031;-81
2023/10/09 13:53:45;;;;;;;;;;;29.20;71.70;;;;;;5114478;28;20028;-81
2023/10/09 13:56:18;;;;;;;10.68;2.72;;;28.90;71.80;;;;;;5114311;28;19908;-81
2023/10/09 13:58:49;;;;;;;13.68;2.50;;;28.60;72.80;;;;;;5113835;28;20051;-82
2023/10/09 14:01:27;;;;;;;16.58;2.53;;;28.40;73.60;;;;;;5115514;28;20103;-82
2023/10/09 14:03:57;;;;;;;10.98;2.33;;;28.10;73.80;;;;;;5114009;28;20410;-82
2023/10/09 14:06:33;;;;;;;8.55;2.75;;;28.00;74.60;;;;;;5114343;28;20110;-82
2023/10/09 14:09:04;;;;;;;12.95;2.35;;;27.70;74.90;;;;;;5114483;28;20028;-82
2023/10/09 14:11:37;;;;;;;14.82;2.42;;;27.60;75.80;;;;;;5113980;28;20024;-82
2023/10/09 14:14:03;;;;;;;17.27;2.70;;;27.40;75.70;;;;;;5114416;28;20028;-82
2023/10/09 14:16:32;;;;;;;12.27;2.72;;;27.20;76.40;;;;;;5113430;28;20023;-82
2023/10/09 14:19:00;;;;;;;18.58;2.58;;;27.00;77.30;;;;;;5113954;28;20028;-82
2023/10/09 14:21:30;;;;;;;13.52;2.47;;;26.80;77.80;;;;;;5115096;28;20457;-82
2023/10/09 14:23:59;;;;;;;10.75;2.58;;;26.60;78.30;;;;;;5114093;28;20026;-82
2023/10/09 14:26:29;;;;;;;17.85;2.70;;;26.60;78.70;;;;;;5115025;28;20103;-82
2023/10/09 14:28:56;;;;;;;14.70;2.67;;;26.50;79.20;;;;;;5113342;28;20047;-81
2023/10/09 14:31:29;;;;;;;11.90;2.80;;;26.40;79.20;;;;;;5101158;28;20024;-81
2023/10/09 14:33:58;;;;;;;8.90;2.13;;;26.30;79.40;;;;;;5100492;28;20028;-84
2023/10/09 14:36:24;;;;;;;14.57;2.63;;;26.30;80.30;;;;;;5093205;28;20027;-84
2023/10/09 14:38:55;;;;;;;10.57;2.50;;;26.20;79.90;;;;;;5079244;28;20042;-83
2023/10/09 14:41:23;;;;;;;12.65;2.65;;;26.20;80.20;;;;;;5093240;28;20392;-85
2023/10/09 14:43:49;;;;;;;10.07;2.50;;;26.00;80.20;;;;;;5103771;28;20475;-85
2023/10/09 14:46:15;;;;;;;14.43;3.65;;;25.90;80.50;;;;;;5110023;28;20035;-86
2023/10/09 14:48:45;;;;;;;12.82;2.65;;;25.80;81.00;;;;;;5107852;28;20028;-85
2023/10/09 14:51:13;;;;;;;20.37;3.13;;;25.70;81.70;;;;;;5104769;28;20460;-86
2023/10/09 14:53:40;;;;;;;12.90;2.65;;;25.70;81.60;;;;;;5099760;28;20459;-83
2023/10/09 14:56:08;;;;;;;13.50;2.67;;;25.60;82.20;;;;;;5089191;28;20024;-85
2023/10/09 14:58:35;;;;;;;13.90;2.45;;;25.50;82.30;;;;;;5106901;28;20032;-86
2023/10/09 15:01:12;;;;;;;11.90;2.38;;;25.50;82.30;;;;;;5110045;28;20021;-86
2023/10/09 15:03:38;;;;;;;12.00;3.05;;;25.30;82.60;;;;;;5098375;28;20035;-84
2023/10/09 15:06:08;;;;;;;17.80;3.00;;;25.20;82.70;;;;;;5096554;28;20114;-84
2023/10/09 15:08:34;;;;;;;16.60;2.80;;;25.20;82.80;;;;;;5093847;28;20100;-80
2023/10/09 15:11:00;;;;;;;18.83;2.92;;;25.10;82.90;;;;;;5097109;28;20077;-84
2023/10/09 15:13:27;;;;;;;14.82;2.70;;;25.10;83.00;;;;;;5094856;28;20457;-83
2023/10/09 15:15:54;;;;;;;15.02;2.40;;;25.00;83.10;;;;;;5093711;28;20088;-83